createdAt,value
2016-05-17T00:00:25.890Z,41.08
2016-05-17T00:01:25.878Z,40.89
2016-05-17T00:02:25.865Z,40.99
2016-05-17T00:03:25.852Z,41.18
2016-05-17T00:04:25.839Z,40.89
2016-05-17T00:05:25.841Z,40.99
2016-05-17T00:06:26.156Z,40.89
2016-05-17T00:07:25.644Z,41.08
2016-05-17T00:08:25.786Z,40.99
2016-05-17T00:09:25.774Z,40.89
2016-05-17T00:10:25.761Z,40.89
2016-05-17T00:11:25.592Z,40.89
2016-05-17T00:12:25.736Z,40.89
2016-05-17T00:13:25.722Z,40.8
2016-05-17T00:14:25.803Z,40.89
2016-05-17T00:15:25.696Z,41.08
2016-05-17T00:16:25.683Z,40.99
2016-05-17T00:17:25.702Z,40.99
2016-05-17T00:18:25.657Z,40.99
2016-05-17T00:19:25.661Z,40.8
2016-05-17T00:20:25.648Z,40.99
2016-05-17T00:21:25.651Z,40.89
2016-05-17T00:22:25.810Z,41.08
2016-05-17T00:23:25.593Z,40.89
2016-05-17T00:24:25.580Z,41.18
2016-05-17T00:25:25.567Z,41.18
2016-05-17T00:26:25.570Z,41.08
2016-05-17T00:27:25.542Z,41.38
2016-05-17T00:28:25.529Z,41.56
2016-05-17T00:29:25.515Z,41.47
2016-05-17T00:30:25.815Z,41.66
2016-05-17T00:31:25.505Z,41.28
2016-05-17T00:32:25.477Z,41.56
2016-05-17T00:33:25.464Z,41.47
2016-05-17T00:34:25.450Z,41.38
2016-05-17T00:35:25.438Z,41.38
2016-05-17T00:36:25.472Z,41.66
2016-05-17T00:37:25.412Z,41.47
2016-05-17T00:38:25.790Z,41.86
2016-05-17T00:39:25.386Z,41.76
2016-05-17T00:40:25.373Z,41.66
2016-05-17T00:41:25.204Z,41.76
2016-05-17T00:42:25.347Z,41.86
2016-05-17T00:43:25.335Z,41.76
2016-05-17T00:44:25.166Z,41.86
2016-05-17T00:45:25.309Z,42.05
2016-05-17T00:46:25.843Z,41.76
2016-05-17T00:47:25.283Z,41.76
2016-05-17T00:48:25.270Z,41.95
2016-05-17T00:49:25.257Z,42.24
2016-05-17T00:50:25.243Z,42.33
2016-05-17T00:51:25.231Z,42.43
2016-05-17T00:52:25.218Z,42.53
2016-05-17T00:53:25.205Z,42.53
2016-05-17T00:54:25.848Z,42.53
2016-05-17T00:55:25.179Z,42.53
2016-05-17T00:56:25.151Z,42.43
2016-05-17T00:57:25.153Z,42.63
2016-05-17T00:58:25.140Z,42.53
2016-05-17T00:59:25.128Z,42.63
2016-05-17T01:00:24.959Z,42.43
2016-05-17T01:01:25.087Z,42.53
2016-05-17T01:02:25.136Z,42.43
2016-05-17T01:03:24.904Z,42.82
2016-05-17T01:04:25.062Z,42.91
2016-05-17T01:05:25.050Z,42.82
2016-05-17T01:06:25.052Z,42.91
2016-05-17T01:07:25.025Z,42.72
2016-05-17T01:08:25.011Z,42.91
2016-05-17T01:09:24.998Z,42.91
2016-05-17T01:10:24.986Z,42.82
2016-05-17T01:11:24.972Z,42.82
2016-05-17T01:12:24.944Z,43.01
2016-05-17T01:13:24.791Z,42.91
2016-05-17T01:14:24.933Z,42.91
2016-05-17T01:15:24.921Z,43.11
2016-05-17T01:16:24.892Z,43.11
2016-05-17T01:17:24.895Z,42.82
2016-05-17T01:18:24.882Z,42.91
2016-05-17T01:19:24.853Z,42.91
2016-05-17T01:20:24.841Z,42.91
2016-05-17T01:21:24.843Z,42.91
2016-05-17T01:22:24.830Z,42.91
2016-05-17T01:23:24.817Z,42.91
2016-05-17T01:24:24.648Z,42.82
2016-05-17T01:25:24.791Z,43.01
2016-05-17T01:26:24.779Z,43.11
2016-05-17T01:27:24.749Z,42.91
2016-05-17T01:28:24.752Z,42.82
2016-05-17T01:29:24.739Z,43.01
2016-05-17T01:30:24.726Z,43.01
2016-05-17T01:31:24.714Z,43.01
2016-05-17T01:32:24.700Z,43.01
2016-05-17T01:33:24.673Z,42.72
2016-05-17T01:34:24.659Z,43.01
2016-05-17T01:35:24.646Z,42.82
2016-05-17T01:36:24.665Z,43.01
2016-05-17T01:37:24.620Z,42.91
2016-05-17T01:38:24.608Z,42.82
2016-05-17T01:39:24.594Z,43.49
2016-05-17T01:40:24.597Z,43.2
2016-05-17T01:41:24.584Z,43.3
2016-05-17T01:42:24.556Z,43.2
2016-05-17T01:43:24.558Z,43.2
2016-05-17T01:44:24.389Z,43.2
2016-05-17T01:45:24.516Z,43.11
2016-05-17T01:46:24.519Z,43.01
2016-05-17T01:47:24.507Z,43.11
2016-05-17T01:48:24.493Z,43.2
2016-05-17T01:49:24.466Z,43.01
2016-05-17T01:50:24.483Z,43.3
2016-05-17T01:51:24.455Z,43.49
2016-05-17T01:52:24.271Z,43.4
2016-05-17T01:53:24.413Z,43.2
2016-05-17T01:54:24.401Z,43.11
2016-05-17T01:55:24.403Z,43.59
2016-05-17T01:56:24.374Z,43.59
2016-05-17T01:57:24.362Z,43.4
2016-05-17T01:58:24.349Z,43.11
2016-05-17T01:59:24.335Z,43.2
2016-05-17T02:00:24.323Z,43.3
2016-05-17T02:01:24.310Z,43.3
2016-05-17T02:02:24.297Z,43.2
2016-05-17T02:03:24.284Z,43.68
2016-05-17T02:04:24.270Z,43.59
2016-05-17T02:05:24.259Z,43.01
2016-05-17T02:06:24.511Z,43.3
2016-05-17T02:07:24.232Z,43.01
2016-05-17T02:08:24.220Z,43.4
2016-05-17T02:09:24.206Z,43.2
2016-05-17T02:10:24.037Z,42.82
2016-05-17T02:11:24.197Z,43.01
2016-05-17T02:12:24.167Z,43.3
2016-05-17T02:13:23.998Z,43.4
2016-05-17T02:14:24.142Z,43.4
2016-05-17T02:15:24.128Z,43.3
2016-05-17T02:16:24.116Z,43.2
2016-05-17T02:17:24.103Z,43.2
2016-05-17T02:18:24.090Z,43.59
2016-05-17T02:19:24.078Z,43.68
2016-05-17T02:20:24.063Z,43.59
2016-05-17T02:21:24.066Z,43.59
2016-05-17T02:22:24.038Z,43.59
2016-05-17T02:23:24.010Z,43.59
2016-05-17T02:24:24.013Z,43.11
2016-05-17T02:25:23.999Z,43.59
2016-05-17T02:26:23.987Z,43.59
2016-05-17T02:27:23.974Z,43.59
2016-05-17T02:28:23.945Z,43.59
2016-05-17T02:29:23.948Z,43.4
2016-05-17T02:30:23.935Z,43.3
2016-05-17T02:31:23.922Z,43.68
2016-05-17T02:32:23.753Z,43.66
2016-05-17T02:33:23.896Z,43.01
2016-05-17T02:34:23.883Z,43.2
2016-05-17T02:35:23.761Z,43.59
2016-05-17T02:36:24.278Z,43.2
2016-05-17T02:37:23.954Z,43.3
2016-05-17T02:38:23.878Z,43.4
2016-05-17T02:39:23.865Z,43.11
2016-05-17T02:40:23.806Z,43.49
2016-05-17T02:41:23.839Z,43.11
2016-05-17T02:42:23.623Z,43.3
2016-05-17T02:43:23.766Z,43.2
2016-05-17T02:44:23.738Z,43.2
2016-05-17T02:45:23.975Z,43.4
2016-05-17T02:46:23.712Z,43.2
2016-05-17T02:47:23.700Z,43.11
2016-05-17T02:48:23.702Z,43.01
2016-05-17T02:49:23.688Z,43.68
2016-05-17T02:50:23.676Z,42.99
2016-05-17T02:51:23.992Z,43.2
2016-05-17T02:52:23.635Z,43.4
2016-05-17T02:53:23.981Z,43.49
2016-05-17T02:54:23.608Z,43.4
2016-05-17T02:55:23.611Z,43.18
2016-05-17T02:56:23.599Z,43.3
2016-05-17T02:57:23.570Z,43.18
2016-05-17T02:58:23.557Z,43.4
2016-05-17T02:59:23.544Z,43.28
2016-05-17T03:00:23.532Z,43.2
2016-05-17T03:01:23.971Z,43.3
2016-05-17T03:02:23.349Z,43.3
2016-05-17T03:03:23.492Z,43.3
2016-05-17T03:04:23.479Z,43.4
2016-05-17T03:05:23.467Z,43.18
2016-05-17T03:06:23.844Z,43.3
2016-05-17T03:07:23.440Z,43.47
2016-05-17T03:08:23.428Z,43.37
2016-05-17T03:09:24.023Z,43.4
2016-05-17T03:10:23.245Z,43.2
2016-05-17T03:11:23.389Z,43.3
2016-05-17T03:12:23.376Z,43.2
2016-05-17T03:13:23.363Z,43.3
2016-05-17T03:14:23.350Z,43.3
2016-05-17T03:15:23.196Z,43.3
2016-05-17T03:16:23.325Z,43.3
2016-05-17T03:17:23.952Z,43.28
2016-05-17T03:18:23.298Z,43.49
2016-05-17T03:19:23.286Z,42.99
2016-05-17T03:20:23.272Z,43.2
2016-05-17T03:21:23.118Z,43.3
2016-05-17T03:22:23.262Z,43.2
2016-05-17T03:23:23.233Z,43.2
2016-05-17T03:24:23.221Z,43.3
2016-05-17T03:25:23.254Z,43.11
2016-05-17T03:26:23.241Z,43.3
2016-05-17T03:27:23.182Z,43.18
2016-05-17T03:28:23.200Z,43.4
2016-05-17T03:29:23.156Z,43.28
2016-05-17T03:30:23.174Z,43.49
2016-05-17T03:31:23.129Z,43.3
2016-05-17T03:32:23.118Z,43.4
2016-05-17T03:33:23.293Z,43.4
2016-05-17T03:34:23.091Z,43.4
2016-05-17T03:35:23.079Z,43.3
2016-05-17T03:36:23.065Z,43.49
2016-05-17T03:37:23.053Z,43.3
2016-05-17T03:38:23.023Z,43.4
2016-05-17T03:39:23.012Z,43.28
2016-05-17T03:40:22.998Z,43.2
2016-05-17T03:41:23.282Z,43.2
2016-05-17T03:42:22.816Z,43.49
2016-05-17T03:43:22.975Z,43.4
2016-05-17T03:44:22.947Z,43.4
2016-05-17T03:45:22.949Z,43.4
2016-05-17T03:46:22.920Z,43.4
2016-05-17T03:47:22.766Z,43.4
2016-05-17T03:48:22.895Z,43.01
2016-05-17T03:49:23.288Z,43.3
2016-05-17T03:50:22.868Z,43.4
2016-05-17T03:51:22.966Z,43.11
2016-05-17T03:52:22.702Z,43.4
2016-05-17T03:53:22.830Z,43.18
2016-05-17T03:54:22.816Z,43.4
2016-05-17T03:55:22.804Z,43.3
2016-05-17T03:56:22.947Z,43.28
2016-05-17T03:57:22.778Z,43.28
2016-05-17T03:58:22.609Z,43.47
2016-05-17T03:59:22.752Z,43.4
2016-05-17T04:00:22.740Z,43.37
2016-05-17T04:01:22.742Z,43.4
2016-05-17T04:02:22.713Z,43.49
2016-05-17T04:03:22.700Z,43.37
2016-05-17T04:04:22.985Z,43.37
2016-05-17T04:05:22.675Z,43.18
2016-05-17T04:06:22.662Z,43.37
2016-05-17T04:07:22.946Z,43.37
2016-05-17T04:08:22.636Z,43.37
2016-05-17T04:09:22.623Z,43.18
2016-05-17T04:10:22.625Z,43.4
2016-05-17T04:11:22.597Z,43.37
2016-05-17T04:12:22.928Z,43.4
2016-05-17T04:13:22.571Z,43.28
2016-05-17T04:14:22.558Z,43.37
2016-05-17T04:15:22.545Z,43.28
2016-05-17T04:16:22.533Z,43.08
2016-05-17T04:17:22.519Z,43.28
2016-05-17T04:18:22.506Z,43.28
2016-05-17T04:19:22.493Z,43.28
2016-05-17T04:20:22.997Z,43.4
2016-05-17T04:21:22.468Z,43.3
2016-05-17T04:22:22.439Z,43.28
2016-05-17T04:23:22.427Z,43.37
2016-05-17T04:24:22.429Z,43.37
2016-05-17T04:25:22.416Z,43.49
2016-05-17T04:26:22.402Z,43.3
2016-05-17T04:27:22.390Z,43.3
2016-05-17T04:28:22.924Z,43.49
2016-05-17T04:29:22.349Z,43.37
2016-05-17T04:30:22.179Z,43.3
2016-05-17T04:31:22.323Z,43.37
2016-05-17T04:32:22.326Z,43.28
2016-05-17T04:33:22.312Z,42.99
2016-05-17T04:34:22.284Z,43.4
2016-05-17T04:35:22.145Z,43.11
2016-05-17T04:36:22.962Z,43.18
2016-05-17T04:37:22.246Z,43.28
2016-05-17T04:38:22.232Z,43.57
2016-05-17T04:39:22.220Z,43.08
2016-05-17T04:40:22.206Z,43.66
2016-05-17T04:41:22.193Z,42.7
2016-05-17T04:42:22.180Z,43.28
2016-05-17T04:43:22.167Z,42.99
2016-05-17T04:44:22.264Z,43.18
2016-05-17T04:45:22.142Z,43.28
2016-05-17T04:46:22.129Z,43.47
2016-05-17T04:47:22.116Z,43.47
2016-05-17T04:48:22.103Z,43.47
2016-05-17T04:49:22.089Z,43.28
2016-05-17T04:50:22.077Z,43.28
2016-05-17T04:51:21.907Z,43.18
2016-05-17T04:52:22.098Z,43.28
2016-05-17T04:53:22.039Z,43.18
2016-05-17T04:54:22.025Z,43.08
2016-05-17T04:55:22.013Z,43.28
2016-05-17T04:56:21.843Z,43.47
2016-05-17T04:57:21.986Z,43.28
2016-05-17T04:58:21.817Z,43.08
2016-05-17T04:59:21.960Z,43.47
2016-05-17T05:00:22.244Z,43.28
2016-05-17T05:01:21.935Z,43.28
2016-05-17T05:02:21.922Z,42.99
2016-05-17T05:03:21.909Z,43.28
2016-05-17T05:04:21.896Z,43.18
2016-05-17T05:05:21.726Z,42.99
2016-05-17T05:06:21.870Z,43.18
2016-05-17T05:07:21.715Z,43.18
2016-05-17T05:08:22.984Z,42.99
2016-05-17T05:09:21.837Z,43.18
2016-05-17T05:10:21.726Z,43.28
2016-05-17T05:11:21.897Z,43.18
2016-05-17T05:12:21.942Z,43.18
2016-05-17T05:13:21.972Z,43.08
2016-05-17T05:14:21.989Z,43.37
2016-05-17T05:15:21.991Z,43.08
2016-05-17T05:16:21.994Z,42.89
2016-05-17T05:17:21.980Z,42.8
2016-05-17T05:18:21.999Z,42.7
2016-05-17T05:19:21.825Z,43.08
2016-05-17T05:20:21.989Z,42.8
2016-05-17T05:21:21.981Z,43.08
2016-05-17T05:22:22.786Z,42.6
2016-05-17T05:23:21.793Z,42.7
2016-05-17T05:24:21.941Z,42.8
2016-05-17T05:25:21.930Z,43.08
2016-05-17T05:26:21.763Z,42.8
2016-05-17T05:27:21.908Z,42.89
2016-05-17T05:28:21.929Z,42.99
2016-05-17T05:29:21.886Z,43.08
2016-05-17T05:30:21.873Z,42.99
2016-05-17T05:31:21.876Z,43.08
2016-05-17T05:32:21.849Z,42.99
2016-05-17T05:33:21.837Z,42.99
2016-05-17T05:34:21.824Z,42.99
2016-05-17T05:35:21.812Z,43.08
2016-05-17T05:36:21.799Z,42.99
2016-05-17T05:37:21.787Z,42.8
2016-05-17T05:38:21.790Z,43.18
2016-05-17T05:39:21.761Z,42.7
2016-05-17T05:40:21.748Z,42.89
2016-05-17T05:41:21.579Z,42.89
2016-05-17T05:42:21.723Z,42.89
2016-05-17T05:43:21.710Z,42.7
2016-05-17T05:44:21.696Z,42.8
2016-05-17T05:45:21.684Z,42.89
2016-05-17T05:46:21.671Z,42.7
2016-05-17T05:47:21.657Z,42.99
2016-05-17T05:48:21.646Z,42.89
2016-05-17T05:49:21.631Z,42.99
2016-05-17T05:50:21.619Z,42.99
2016-05-17T05:51:21.606Z,42.8
2016-05-17T05:52:21.437Z,42.99
2016-05-17T05:53:21.581Z,42.89
2016-05-17T05:54:21.552Z,42.8
2016-05-17T05:55:21.554Z,42.6
2016-05-17T05:56:21.526Z,42.7
2016-05-17T05:57:21.514Z,42.99
2016-05-17T05:58:21.531Z,42.7
2016-05-17T05:59:21.503Z,42.7
2016-05-17T06:00:21.475Z,42.8
2016-05-17T06:01:21.461Z,42.8
2016-05-17T06:02:21.448Z,42.89
2016-05-17T06:03:21.436Z,42.6
2016-05-17T06:04:21.422Z,42.7
2016-05-17T06:05:21.410Z,42.99
2016-05-17T06:06:21.240Z,42.8
2016-05-17T06:07:21.243Z,42.6
2016-05-17T06:08:21.371Z,42.89
2016-05-17T06:09:21.202Z,42.89
2016-05-17T06:10:21.344Z,42.7
2016-05-17T06:11:21.332Z,42.8
2016-05-17T06:12:21.318Z,42.99
2016-05-17T06:13:21.306Z,42.6
2016-05-17T06:14:21.293Z,42.8
2016-05-17T06:15:21.280Z,42.8
2016-05-17T06:16:21.282Z,42.6
2016-05-17T06:17:21.254Z,42.6
2016-05-17T06:18:21.241Z,42.5
2016-05-17T06:19:21.228Z,42.99
2016-05-17T06:20:21.216Z,42.89
2016-05-17T06:21:21.203Z,42.41
2016-05-17T06:22:21.580Z,42.5
2016-05-17T06:23:21.176Z,42.41
2016-05-17T06:24:21.195Z,42.5
2016-05-17T06:25:21.135Z,42.5
2016-05-17T06:26:21.123Z,42.6
2016-05-17T06:27:21.126Z,42.5
2016-05-17T06:28:21.111Z,42.5
2016-05-17T06:29:21.100Z,42.6
2016-05-17T06:30:21.086Z,42.89
2016-05-17T06:31:21.073Z,42.89
2016-05-17T06:32:21.061Z,42.6
2016-05-17T06:33:21.032Z,42.99
2016-05-17T06:34:21.019Z,42.89
2016-05-17T06:35:21.022Z,42.99
2016-05-17T06:36:21.009Z,42.7
2016-05-17T06:37:20.996Z,42.6
2016-05-17T06:38:20.983Z,42.41
2016-05-17T06:39:20.954Z,42.5
2016-05-17T06:40:20.785Z,42.6
2016-05-17T06:41:20.928Z,42.5
2016-05-17T06:42:20.916Z,42.99
2016-05-17T06:43:20.746Z,42.89
2016-05-17T06:44:20.890Z,42.99
2016-05-17T06:45:20.877Z,42.41
2016-05-17T06:46:20.707Z,42.89
2016-05-17T06:47:20.694Z,42.41
2016-05-17T06:48:20.837Z,42.41
2016-05-17T06:49:20.824Z,42.7
2016-05-17T06:50:20.812Z,42.41
2016-05-17T06:51:20.815Z,42.6
2016-05-17T06:52:20.895Z,42.99
2016-05-17T06:53:20.789Z,42.6
2016-05-17T06:54:20.760Z,42.6
2016-05-17T06:55:20.747Z,42.41
2016-05-17T06:56:20.734Z,42.7
2016-05-17T06:57:20.720Z,42.89
2016-05-17T06:58:20.693Z,42.89
2016-05-17T06:59:20.695Z,42.8
2016-05-17T07:00:20.683Z,42.99
2016-05-17T07:01:20.653Z,42.7
2016-05-17T07:02:20.656Z,42.6
2016-05-17T07:03:20.644Z,42.8
2016-05-17T07:04:20.474Z,42.8
2016-05-17T07:05:20.602Z,42.6
2016-05-17T07:06:20.449Z,42.7
2016-05-17T07:07:20.592Z,42.7
2016-05-17T07:08:20.563Z,42.8
2016-05-17T07:09:20.566Z,42.5
2016-05-17T07:10:20.552Z,42.63
2016-05-17T07:11:20.524Z,42.63
2016-05-17T07:12:20.527Z,42.53
2016-05-17T07:13:20.530Z,42.6
2016-05-17T07:14:20.485Z,42.6
2016-05-17T07:15:20.488Z,42.72
2016-05-17T07:16:20.632Z,42.63
2016-05-17T07:17:20.447Z,42.72
2016-05-17T07:18:20.434Z,42.63
2016-05-17T07:19:20.280Z,40.99
2016-05-17T07:20:20.423Z,41.35
2016-05-17T07:21:20.395Z,41.33
2016-05-17T07:22:21.085Z,41.12
2016-05-17T07:23:20.369Z,41.56
2016-05-17T07:24:20.623Z,42.9
2016-05-17T07:25:20.343Z,44.17
2016-05-17T07:26:20.174Z,43.62
2016-05-17T07:27:20.162Z,42.94
2016-05-17T07:28:20.304Z,42.49
2016-05-17T07:29:20.292Z,41.82
2016-05-17T07:30:20.278Z,41.64
2016-05-17T07:31:20.266Z,41.55
2016-05-17T07:32:20.659Z,41.16
2016-05-17T07:33:20.240Z,41.26
2016-05-17T07:34:20.227Z,41.16
2016-05-17T07:35:20.214Z,41.16
2016-05-17T07:36:20.201Z,41.83
2016-05-17T07:37:20.203Z,42.6
2016-05-17T07:38:20.172Z,43.66
2016-05-17T07:39:20.160Z,44.14
2016-05-17T07:40:20.649Z,45.01
2016-05-17T07:41:19.961Z,44.82
2016-05-17T07:42:20.121Z,44.91
2016-05-17T07:43:20.108Z,46.09
2016-05-17T07:44:19.938Z,45.9
2016-05-17T07:45:20.082Z,45.7
2016-05-17T07:46:19.896Z,45.8
2016-05-17T07:47:19.885Z,45.51
2016-05-17T07:48:20.640Z,45.29
2016-05-17T07:49:20.015Z,45.03
2016-05-17T07:50:20.018Z,45.29
2016-05-17T07:51:20.004Z,45.42
2016-05-17T07:52:20.226Z,44.91
2016-05-17T07:53:19.963Z,45.13
2016-05-17T07:54:19.950Z,45.03
2016-05-17T07:55:19.937Z,44.65
2016-05-17T07:56:20.626Z,44.35
2016-05-17T07:57:19.755Z,44.45
2016-05-17T07:58:19.898Z,43.76
2016-05-17T07:59:19.885Z,43.95
2016-05-17T08:00:19.873Z,43.88
2016-05-17T08:01:19.859Z,43.88
2016-05-17T08:02:19.847Z,43.49
2016-05-17T08:03:19.834Z,43.11
2016-05-17T08:04:19.914Z,43.3
2016-05-17T08:05:19.808Z,43.2
2016-05-17T08:06:19.794Z,43.2
2016-05-17T08:07:19.782Z,42.82
2016-05-17T08:08:19.769Z,43.4
2016-05-17T08:09:19.755Z,43.01
2016-05-17T08:10:19.744Z,43.01
2016-05-17T08:11:19.730Z,42.82
2016-05-17T08:12:19.920Z,42.82
2016-05-17T08:13:19.705Z,43.01
2016-05-17T08:14:19.675Z,42.82
2016-05-17T08:15:19.678Z,42.63
2016-05-17T08:16:19.493Z,42.63
2016-05-17T08:17:19.652Z,42.63
2016-05-17T08:18:19.468Z,42.72
2016-05-17T08:19:19.626Z,38.87
2016-05-17T08:20:19.910Z,38.54
2016-05-17T08:21:19.585Z,39.78
2016-05-17T08:22:19.525Z,39.78
2016-05-17T08:23:19.404Z,41.82
2016-05-17T08:24:19.562Z,41.72
2016-05-17T08:25:19.377Z,40.88
2016-05-17T08:26:19.520Z,40.78
2016-05-17T08:27:19.617Z,40.88
2016-05-17T08:28:19.901Z,40.88
2016-05-17T08:29:19.481Z,40.2
2016-05-17T08:30:19.468Z,40.88
2016-05-17T08:31:19.471Z,41.26
2016-05-17T08:32:19.459Z,41.06
2016-05-17T08:33:19.289Z,40.97
2016-05-17T08:34:19.417Z,41.08
2016-05-17T08:35:19.920Z,40.8
2016-05-17T08:36:19.423Z,40.31
2016-05-17T08:37:19.378Z,40.51
2016-05-17T08:38:19.381Z,40.51
2016-05-17T08:39:19.353Z,40.41
2016-05-17T08:40:19.355Z,40.31
2016-05-17T08:41:19.327Z,39.83
2016-05-17T08:42:19.173Z,39.93
2016-05-17T08:43:19.832Z,40.31
2016-05-17T08:44:19.288Z,40.41
2016-05-17T08:45:19.290Z,39.83
2016-05-17T08:46:19.105Z,39.93
2016-05-17T08:47:19.249Z,39.93
2016-05-17T08:48:19.252Z,40.31
2016-05-17T08:49:19.223Z,40.51
2016-05-17T08:50:19.272Z,40.22
2016-05-17T08:51:19.431Z,40.31
2016-05-17T08:52:19.309Z,40.34
2016-05-17T08:53:19.155Z,40.53
2016-05-17T08:54:19.158Z,40.43
2016-05-17T08:55:19.146Z,40.05
2016-05-17T08:56:19.117Z,40.31
2016-05-17T08:57:19.120Z,39.86
2016-05-17T08:58:19.091Z,40.31
2016-05-17T08:59:19.578Z,40.22
2016-05-17T09:00:19.065Z,40.12
2016-05-17T09:01:19.068Z,40.31
2016-05-17T09:02:19.039Z,40.22
2016-05-17T09:03:19.042Z,39.83
2016-05-17T09:04:19.028Z,40.34
2016-05-17T09:05:19.000Z,40.31
2016-05-17T09:06:18.987Z,40.53
2016-05-17T09:07:19.427Z,39.93
2016-05-17T09:08:18.961Z,39.93
2016-05-17T09:09:18.948Z,39.86
2016-05-17T09:10:18.795Z,40.14
2016-05-17T09:11:18.923Z,40.31
2016-05-17T09:12:18.910Z,40.03
2016-05-17T09:13:33.430Z,40.51
2016-05-17T09:14:18.883Z,40.41
2016-05-17T09:15:19.575Z,40.31
2016-05-17T09:16:18.858Z,40.41
2016-05-17T09:17:18.845Z,40.51
2016-05-17T09:18:18.832Z,40.31
2016-05-17T09:19:18.819Z,40.51
2016-05-17T09:20:18.806Z,40.51
2016-05-17T09:21:18.809Z,40.89
2016-05-17T09:22:18.780Z,41.08
2016-05-17T09:23:19.627Z,40.89
2016-05-17T09:24:18.771Z,41.18
2016-05-17T09:25:18.741Z,40.99
2016-05-17T09:26:18.729Z,40.31
2016-05-17T09:27:18.716Z,40.89
2016-05-17T09:28:18.703Z,40.8
2016-05-17T09:29:18.690Z,40.8
2016-05-17T09:30:18.677Z,40.31
2016-05-17T09:31:18.914Z,40.89
2016-05-17T09:32:18.651Z,40.8
2016-05-17T09:33:18.638Z,40.8
2016-05-17T09:34:18.626Z,40.61
2016-05-17T09:35:18.456Z,40.41
2016-05-17T09:36:18.600Z,40.89
2016-05-17T09:37:18.868Z,40.22
2016-05-17T09:38:18.573Z,41.08
2016-05-17T09:39:18.873Z,41.08
2016-05-17T09:40:18.548Z,40.89
2016-05-17T09:41:18.534Z,41.18
2016-05-17T09:42:18.522Z,40.91
2016-05-17T09:43:18.525Z,40.51
2016-05-17T09:44:18.324Z,40.31
2016-05-17T09:45:18.467Z,40.7
2016-05-17T09:46:18.329Z,40.99
2016-05-17T09:47:18.910Z,40.63
2016-05-17T09:48:18.428Z,40.51
2016-05-17T09:49:18.430Z,40.72
2016-05-17T09:50:18.418Z,40.63
2016-05-17T09:51:18.405Z,40.99
2016-05-17T09:52:18.393Z,41.08
2016-05-17T09:53:18.224Z,41.08
2016-05-17T09:54:18.352Z,41.01
2016-05-17T09:55:18.337Z,40.99
2016-05-17T09:56:18.341Z,41.08
2016-05-17T09:57:18.313Z,40.8
2016-05-17T09:58:18.299Z,41.18
2016-05-17T09:59:18.287Z,41.01
2016-05-17T10:00:18.273Z,41.2
2016-05-17T10:01:18.260Z,40.91
2016-05-17T10:02:18.263Z,40.99
2016-05-17T10:03:18.234Z,41.01
2016-05-17T10:04:18.237Z,40.91
2016-05-17T10:05:18.209Z,40.91
2016-05-17T10:06:18.195Z,41.01
2016-05-17T10:07:18.604Z,41.39
2016-05-17T10:08:18.170Z,41.2
2016-05-17T10:09:18.173Z,41.39
2016-05-17T10:10:18.144Z,41.3
2016-05-17T10:11:18.131Z,41.01
2016-05-17T10:12:18.133Z,41.11
2016-05-17T10:13:18.106Z,40.81
2016-05-17T10:14:18.092Z,40.91
2016-05-17T10:15:18.080Z,40.91
2016-05-17T10:16:18.067Z,41.01
2016-05-17T10:17:18.053Z,40.91
2016-05-17T10:18:18.041Z,40.91
2016-05-17T10:19:18.044Z,40.81
2016-05-17T10:20:18.030Z,40.81
2016-05-17T10:21:18.002Z,40.91
2016-05-17T10:22:18.036Z,40.91
2016-05-17T10:23:17.976Z,40.91
2016-05-17T10:24:17.963Z,41.01
2016-05-17T10:25:17.793Z,40.91
2016-05-17T10:26:17.938Z,41.01
2016-05-17T10:27:17.924Z,41.13
2016-05-17T10:28:17.910Z,41.13
2016-05-17T10:29:17.883Z,40.94
2016-05-17T10:30:17.885Z,41.03
2016-05-17T10:31:17.872Z,41.13
2016-05-17T10:32:17.860Z,41.22
2016-05-17T10:33:17.846Z,41.13
2016-05-17T10:34:17.677Z,41.2
2016-05-17T10:35:17.821Z,40.26
2016-05-17T10:36:17.807Z,40.63
2016-05-17T10:37:17.794Z,40.53
2016-05-17T10:38:17.782Z,41.01
2016-05-17T10:39:17.784Z,40.43
2016-05-17T10:40:17.756Z,40.81
2016-05-17T10:41:17.728Z,41.11
2016-05-17T10:42:17.715Z,40.53
2016-05-17T10:43:17.717Z,41.11
2016-05-17T10:44:17.704Z,40.81
2016-05-17T10:45:17.520Z,40.91
2016-05-17T10:46:17.522Z,41.03
2016-05-17T10:47:17.509Z,41.01
2016-05-17T10:48:17.653Z,40.91
2016-05-17T10:49:17.624Z,40.91
2016-05-17T10:50:17.611Z,40.91
2016-05-17T10:51:17.598Z,40.91
2016-05-17T10:52:17.601Z,40.91
2016-05-17T10:53:17.572Z,40.91
2016-05-17T10:54:17.560Z,40.72
2016-05-17T10:55:17.562Z,40.81
2016-05-17T10:56:17.377Z,40.91
2016-05-17T10:57:17.521Z,40.91
2016-05-17T10:58:17.523Z,41.01
2016-05-17T10:59:17.510Z,41.01
2016-05-17T11:00:17.497Z,40.72
2016-05-17T11:01:17.469Z,40.81
2016-05-17T11:02:17.471Z,40.91
2016-05-17T11:03:17.302Z,40.81
2016-05-17T11:04:17.273Z,41.03
2016-05-17T11:05:17.432Z,40.94
2016-05-17T11:06:17.420Z,40.91
2016-05-17T11:07:17.922Z,40.84
2016-05-17T11:08:17.393Z,40.84
2016-05-17T11:09:17.381Z,40.94
2016-05-17T11:10:17.368Z,40.94
2016-05-17T11:11:17.198Z,40.84
2016-05-17T11:12:17.326Z,40.74
2016-05-17T11:13:17.313Z,40.94
2016-05-17T11:14:17.144Z,40.84
2016-05-17T11:15:17.147Z,41.03
2016-05-17T11:16:17.133Z,40.74
2016-05-17T11:17:17.277Z,41.03
2016-05-17T11:18:17.264Z,40.84
2016-05-17T11:19:17.236Z,40.36
2016-05-17T11:20:17.223Z,39.66
2016-05-17T11:21:17.211Z,39.74
2016-05-17T11:22:17.212Z,39.43
2016-05-17T11:23:17.183Z,39.62
2016-05-17T11:24:17.016Z,40.18
2016-05-17T11:25:17.158Z,39.79
2016-05-17T11:26:17.146Z,39.89
2016-05-17T11:27:17.149Z,39.72
2016-05-17T11:28:17.119Z,39.53
2016-05-17T11:29:17.107Z,39.24
2016-05-17T11:30:17.093Z,38.97
2016-05-17T11:31:17.080Z,39.16
2016-05-17T11:32:17.068Z,39.16
2016-05-17T11:33:17.055Z,38.78
2016-05-17T11:34:17.042Z,39.16
2016-05-17T11:35:17.029Z,39.06
2016-05-17T11:36:17.016Z,38.78
2016-05-17T11:37:17.003Z,38.97
2016-05-17T11:38:16.989Z,38.97
2016-05-17T11:39:16.977Z,38.78
2016-05-17T11:40:16.808Z,38.87
2016-05-17T11:41:16.951Z,38.68
2016-05-17T11:42:16.939Z,38.7
2016-05-17T11:43:16.925Z,38.6
2016-05-17T11:44:16.912Z,38.6
2016-05-17T11:45:16.899Z,38.6
2016-05-17T11:46:16.886Z,38.51
2016-05-17T11:47:16.967Z,38.7
2016-05-17T11:48:16.861Z,38.7
2016-05-17T11:49:16.847Z,38.51
2016-05-17T11:50:16.850Z,38.7
2016-05-17T11:51:16.838Z,38.51
2016-05-17T11:52:16.808Z,38.7
2016-05-17T11:53:16.796Z,38.43
2016-05-17T11:54:16.627Z,38.53
2016-05-17T11:55:16.926Z,38.43
2016-05-17T11:56:16.757Z,38.33
2016-05-17T11:57:16.744Z,38.43
2016-05-17T11:58:16.731Z,38.43
2016-05-17T11:59:16.719Z,38.43
2016-05-17T12:00:16.691Z,38.24
2016-05-17T12:01:16.676Z,38.33
2016-05-17T12:02:16.679Z,38.33
2016-05-17T12:03:16.901Z,38.62
2016-05-17T12:04:16.638Z,38.43
2016-05-17T12:05:16.468Z,38.72
2016-05-17T12:06:16.629Z,38.81
2016-05-17T12:07:16.943Z,38.72
2016-05-17T12:08:16.601Z,38.81
2016-05-17T12:09:16.589Z,39.2
2016-05-17T12:10:16.576Z,39.2
2016-05-17T12:11:16.906Z,39.11
2016-05-17T12:12:16.550Z,38.99
2016-05-17T12:13:16.537Z,38.79
2016-05-17T12:14:16.525Z,39.28
2016-05-17T12:15:16.355Z,39.37
2016-05-17T12:16:16.326Z,39.28
2016-05-17T12:17:16.486Z,39.28
2016-05-17T12:18:16.316Z,39.28
2016-05-17T12:19:16.897Z,39.18
2016-05-17T12:20:16.447Z,39.56
2016-05-17T12:21:16.434Z,39.86
2016-05-17T12:22:16.483Z,39.47
2016-05-17T12:23:16.408Z,40.07
2016-05-17T12:24:16.379Z,39.56
2016-05-17T12:25:16.382Z,39.66
2016-05-17T12:26:16.353Z,39.47
2016-05-17T12:27:16.950Z,38.99
2016-05-17T12:28:16.343Z,39.2
2016-05-17T12:29:16.330Z,38.91
2016-05-17T12:30:16.318Z,38.53
2016-05-17T12:31:16.321Z,38.16
2016-05-17T12:32:16.291Z,37.87
2016-05-17T12:33:16.263Z,37.87
2016-05-17T12:34:16.266Z,37.6
2016-05-17T12:35:16.956Z,37.41
2016-05-17T12:36:16.240Z,37.12
2016-05-17T12:37:16.679Z,36.83
2016-05-17T12:38:16.214Z,36.46
2016-05-17T12:39:16.201Z,36.27
2016-05-17T12:40:16.188Z,36.75
2016-05-17T12:41:16.018Z,36.73
2016-05-17T12:42:16.162Z,37.23
2016-05-17T12:43:16.196Z,37.6
2016-05-17T12:44:16.137Z,37.7
2016-05-17T12:45:16.123Z,37.7
2016-05-17T12:46:16.111Z,37.31
2016-05-17T12:47:16.098Z,37.12
2016-05-17T12:48:16.084Z,37.02
2016-05-17T12:49:16.071Z,36.46
2016-05-17T12:50:16.058Z,36.27
2016-05-17T12:51:16.217Z,36.36
2016-05-17T12:52:15.892Z,36.27
2016-05-17T12:53:16.035Z,36.17
2016-05-17T12:54:16.007Z,36.19
2016-05-17T12:55:15.838Z,36.48
2016-05-17T12:56:15.825Z,36.09
2016-05-17T12:57:15.984Z,36.46
2016-05-17T12:58:15.799Z,37.04